sensor_id;sensor_type;location;lat;lon;timestamp;P1;durP1;ratioP1;P2;durP2;ratioP2
11807;SDS011;5961;42.640;23.380;2023-09-18T00:01:44;14.47;;;11.37;;
11807;SDS011;5961;42.640;23.380;2023-09-18T00:04:09;13.10;;;11.67;;
11807;SDS011;5961;42.640;23.380;2023-09-18T00:06:36;17.27;;;13.90;;
11807;SDS011;5961;42.640;23.380;2023-09-18T00:09:03;18.50;;;14.40;;
11807;SDS011;5961;42.640;23.380;2023-09-18T00:11:31;17.73;;;15.80;;
11807;SDS011;5961;42.640;23.380;2023-09-18T00:13:57;17.50;;;15.37;;
11807;SDS011;5961;42.640;23.380;2023-09-18T00:16:24;20.80;;;16.80;;
11807;SDS011;5961;42.640;23.380;2023-09-18T00:18:52;19.63;;;17.50;;
11807;SDS011;5961;42.640;23.380;2023-09-18T00:21:18;20.30;;;16.77;;
11807;SDS011;5961;42.640;23.380;2023-09-18T00:23:45;19.07;;;16.43;;
11807;SDS011;5961;42.640;23.380;2023-09-18T00:26:12;20.67;;;17.37;;
11807;SDS011;5961;42.640;23.380;2023-09-18T00:28:40;18.43;;;16.57;;
11807;SDS011;5961;42.640;23.380;2023-09-18T00:31:07;19.83;;;16.70;;
11807;SDS011;5961;42.640;23.380;2023-09-18T00:33:33;20.70;;;18.40;;
11807;SDS011;5961;42.640;23.380;2023-09-18T00:36:00;22.37;;;18.50;;
11807;SDS011;5961;42.640;23.380;2023-09-18T00:38:27;21.90;;;19.33;;
11807;SDS011;5961;42.640;23.380;2023-09-18T00:40:53;24.03;;;19.23;;
11807;SDS011;5961;42.640;23.380;2023-09-18T00:43:20;23.07;;;20.60;;
11807;SDS011;5961;42.640;23.380;2023-09-18T00:45:48;22.97;;;20.43;;
11807;SDS011;5961;42.640;23.380;2023-09-18T00:48:15;22.80;;;20.40;;
11807;SDS011;5961;42.640;23.380;2023-09-18T00:50:43;23.07;;;20.13;;
11807;SDS011;5961;42.640;23.380;2023-09-18T00:53:11;27.97;;;21.63;;
11807;SDS011;5961;42.640;23.380;2023-09-18T00:55:40;25.43;;;21.17;;
11807;SDS011;5961;42.640;23.380;2023-09-18T00:58:07;23.83;;;21.27;;
11807;SDS011;5961;42.640;23.380;2023-09-18T01:00:34;24.33;;;20.10;;
11807;SDS011;5961;42.640;23.380;2023-09-18T01:03:03;21.47;;;19.17;;
11807;SDS011;5961;42.640;23.380;2023-09-18T01:05:31;25.83;;;20.63;;
11807;SDS011;5961;42.640;23.380;2023-09-18T01:07:58;24.60;;;21.67;;
11807;SDS011;5961;42.640;23.380;2023-09-18T01:10:27;25.30;;;21.47;;
11807;SDS011;5961;42.640;23.380;2023-09-18T01:13:00;23.33;;;20.83;;
11807;SDS011;5961;42.640;23.380;2023-09-18T01:15:32;20.87;;;18.60;;
11807;SDS011;5961;42.640;23.380;2023-09-18T01:18:04;22.37;;;18.70;;
11807;SDS011;5961;42.640;23.380;2023-09-18T01:20:31;20.83;;;18.73;;
11807;SDS011;5961;42.640;23.380;2023-09-18T01:22:59;21.27;;;19.03;;
11807;SDS011;5961;42.640;23.380;2023-09-18T01:25:26;21.60;;;18.10;;
11807;SDS011;5961;42.640;23.380;2023-09-18T01:27:52;20.63;;;18.43;;
11807;SDS011;5961;42.640;23.380;2023-09-18T01:30:19;19.70;;;16.93;;
11807;SDS011;5961;42.640;23.380;2023-09-18T01:32:46;18.30;;;16.37;;
11807;SDS011;5961;42.640;23.380;2023-09-18T01:35:13;18.07;;;16.00;;
11807;SDS011;5961;42.640;23.380;2023-09-18T01:37:41;18.13;;;16.00;;
11807;SDS011;5961;42.640;23.380;2023-09-18T01:40:11;17.73;;;15.93;;
11807;SDS011;5961;42.640;23.380;2023-09-18T01:42:38;16.73;;;15.07;;
11807;SDS011;5961;42.640;23.380;2023-09-18T01:45:07;17.13;;;14.63;;
11807;SDS011;5961;42.640;23.380;2023-09-18T01:47:34;20.33;;;15.33;;
11807;SDS011;5961;42.640;23.380;2023-09-18T01:50:02;17.20;;;15.40;;
11807;SDS011;5961;42.640;23.380;2023-09-18T01:52:31;17.73;;;14.03;;
11807;SDS011;5961;42.640;23.380;2023-09-18T01:54:57;17.23;;;15.17;;
11807;SDS011;5961;42.640;23.380;2023-09-18T01:57:25;18.13;;;15.43;;
11807;SDS011;5961;42.640;23.380;2023-09-18T01:59:52;17.50;;;15.60;;
11807;SDS011;5961;42.640;23.380;2023-09-18T02:02:19;18.27;;;16.33;;
11807;SDS011;5961;42.640;23.380;2023-09-18T02:04:45;16.83;;;15.13;;
11807;SDS011;5961;42.640;23.380;2023-09-18T02:07:12;18.03;;;15.37;;
11807;SDS011;5961;42.640;23.380;2023-09-18T02:09:39;19.00;;;16.30;;
11807;SDS011;5961;42.640;23.380;2023-09-18T02:12:06;17.10;;;15.33;;
11807;SDS011;5961;42.640;23.380;2023-09-18T02:14:34;17.77;;;15.97;;
11807;SDS011;5961;42.640;23.380;2023-09-18T02:17:01;17.87;;;15.87;;
11807;SDS011;5961;42.640;23.380;2023-09-18T02:19:28;17.10;;;15.40;;
11807;SDS011;5961;42.640;23.380;2023-09-18T02:21:55;17.80;;;15.00;;
11807;SDS011;5961;42.640;23.380;2023-09-18T02:24:23;17.93;;;15.93;;
11807;SDS011;5961;42.640;23.380;2023-09-18T02:26:49;18.00;;;16.20;;
11807;SDS011;5961;42.640;23.380;2023-09-18T02:29:16;23.13;;;16.67;;
11807;SDS011;5961;42.640;23.380;2023-09-18T02:31:44;17.83;;;16.03;;
11807;SDS011;5961;42.640;23.380;2023-09-18T02:34:11;18.90;;;15.13;;
11807;SDS011;5961;42.640;23.380;2023-09-18T02:36:38;15.07;;;13.50;;
11807;SDS011;5961;42.640;23.380;2023-09-18T02:39:04;15.57;;;14.00;;
11807;SDS011;5961;42.640;23.380;2023-09-18T02:41:31;15.97;;;14.27;;
11807;SDS011;5961;42.640;23.380;2023-09-18T02:43:58;16.00;;;14.30;;
11807;SDS011;5961;42.640;23.380;2023-09-18T02:46:24;15.87;;;13.23;;
11807;SDS011;5961;42.640;23.380;2023-09-18T02:48:52;17.23;;;13.53;;
11807;SDS011;5961;42.640;23.380;2023-09-18T02:51:19;15.37;;;13.27;;
11807;SDS011;5961;42.640;23.380;2023-09-18T02:53:46;15.90;;;14.13;;
11807;SDS011;5961;42.640;23.380;2023-09-18T02:56:13;17.53;;;13.93;;
11807;SDS011;5961;42.640;23.380;2023-09-18T02:58:39;15.77;;;13.83;;
11807;SDS011;5961;42.640;23.380;2023-09-18T03:01:06;17.17;;;14.50;;
11807;SDS011;5961;42.640;23.380;2023-09-18T03:03:34;16.50;;;13.83;;
11807;SDS011;5961;42.640;23.380;2023-09-18T03:06:02;15.70;;;14.13;;
11807;SDS011;5961;42.640;23.380;2023-09-18T03:08:29;17.50;;;14.90;;
11807;SDS011;5961;42.640;23.380;2023-09-18T03:10:56;17.77;;;14.37;;
11807;SDS011;5961;42.640;23.380;2023-09-18T03:13:23;18.80;;;15.70;;
11807;SDS011;5961;42.640;23.380;2023-09-18T03:15:52;16.70;;;14.90;;
11807;SDS011;5961;42.640;23.380;2023-09-18T03:18:18;16.97;;;14.93;;
11807;SDS011;5961;42.640;23.380;2023-09-18T03:20:45;19.90;;;16.13;;
11807;SDS011;5961;42.640;23.380;2023-09-18T03:23:14;17.83;;;15.33;;
11807;SDS011;5961;42.640;23.380;2023-09-18T03:25:41;18.33;;;15.53;;
11807;SDS011;5961;42.640;23.380;2023-09-18T03:28:08;25.70;;;20.23;;
11807;SDS011;5961;42.640;23.380;2023-09-18T03:30:34;24.13;;;19.47;;
11807;SDS011;5961;42.640;23.380;2023-09-18T03:33:01;25.97;;;23.17;;
11807;SDS011;5961;42.640;23.380;2023-09-18T03:35:30;21.73;;;19.37;;
11807;SDS011;5961;42.640;23.380;2023-09-18T03:37:57;20.47;;;18.33;;
11807;SDS011;5961;42.640;23.380;2023-09-18T03:40:25;22.53;;;19.17;;
11807;SDS011;5961;42.640;23.380;2023-09-18T03:42:52;22.97;;;16.57;;
11807;SDS011;5961;42.640;23.380;2023-09-18T03:45:19;20.83;;;17.83;;
11807;SDS011;5961;42.640;23.380;2023-09-18T03:47:45;20.73;;;17.97;;
11807;SDS011;5961;42.640;23.380;2023-09-18T03:50:15;40.83;;;29.63;;
11807;SDS011;5961;42.640;23.380;2023-09-18T03:52:41;27.57;;;23.37;;
11807;SDS011;5961;42.640;23.380;2023-09-18T03:55:08;21.27;;;16.40;;
11807;SDS011;5961;42.640;23.380;2023-09-18T03:57:36;22.17;;;19.03;;
11807;SDS011;5961;42.640;23.380;2023-09-18T04:00:04;22.77;;;18.73;;
11807;SDS011;5961;42.640;23.380;2023-09-18T04:02:32;23.67;;;20.33;;
11807;SDS011;5961;42.640;23.380;2023-09-18T04:04:59;25.20;;;21.77;;
11807;SDS011;5961;42.640;23.380;2023-09-18T04:07:26;26.60;;;19.00;;
11807;SDS011;5961;42.640;23.380;2023-09-18T04:09:52;22.00;;;18.47;;
11807;SDS011;5961;42.640;23.380;2023-09-18T04:12:19;31.33;;;26.10;;
11807;SDS011;5961;42.640;23.380;2023-09-18T04:14:47;28.40;;;20.57;;
11807;SDS011;5961;42.640;23.380;2023-09-18T04:17:14;21.93;;;18.70;;
11807;SDS011;5961;42.640;23.380;2023-09-18T04:19:40;23.77;;;19.30;;
11807;SDS011;5961;42.640;23.380;2023-09-18T04:22:08;22.37;;;19.00;;
11807;SDS011;5961;42.640;23.380;2023-09-18T04:24:35;21.37;;;18.17;;
11807;SDS011;5961;42.640;23.380;2023-09-18T04:27:02;23.10;;;18.27;;
11807;SDS011;5961;42.640;23.380;2023-09-18T04:29:29;27.63;;;20.67;;
11807;SDS011;5961;42.640;23.380;2023-09-18T04:31:57;25.43;;;19.80;;
11807;SDS011;5961;42.640;23.380;2023-09-18T04:34:24;25.93;;;19.00;;
11807;SDS011;5961;42.640;23.380;2023-09-18T04:36:51;22.80;;;18.50;;
11807;SDS011;5961;42.640;23.380;2023-09-18T04:39:17;27.73;;;20.40;;
11807;SDS011;5961;42.640;23.380;2023-09-18T04:41:45;31.57;;;20.23;;
11807;SDS011;5961;42.640;23.380;2023-09-18T04:44:11;27.87;;;20.43;;
11807;SDS011;5961;42.640;23.380;2023-09-18T04:46:40;23.97;;;19.20;;
11807;SDS011;5961;42.640;23.380;2023-09-18T04:49:09;26.67;;;20.77;;
11807;SDS011;5961;42.640;23.380;2023-09-18T04:51:37;23.70;;;19.63;;
11807;SDS011;5961;42.640;23.380;2023-09-18T04:54:04;24.23;;;18.90;;
11807;SDS011;5961;42.640;23.380;2023-09-18T04:56:31;26.47;;;19.47;;
11807;SDS011;5961;42.640;23.380;2023-09-18T04:58:58;26.17;;;19.27;;
11807;SDS011;5961;42.640;23.380;2023-09-18T05:01:25;30.23;;;18.77;;
11807;SDS011;5961;42.640;23.380;2023-09-18T05:03:51;24.40;;;18.30;;
11807;SDS011;5961;42.640;23.380;2023-09-18T05:06:20;28.47;;;18.73;;
11807;SDS011;5961;42.640;23.380;2023-09-18T05:08:46;23.13;;;18.53;;
11807;SDS011;5961;42.640;23.380;2023-09-18T05:11:13;24.53;;;19.07;;
11807;SDS011;5961;42.640;23.380;2023-09-18T05:13:40;25.10;;;18.90;;
11807;SDS011;5961;42.640;23.380;2023-09-18T05:16:06;23.60;;;18.33;;
11807;SDS011;5961;42.640;23.380;2023-09-18T05:18:33;28.77;;;18.73;;
11807;SDS011;5961;42.640;23.380;2023-09-18T05:21:00;29.43;;;20.07;;
11807;SDS011;5961;42.640;23.380;2023-09-18T05:23:31;26.50;;;19.03;;
11807;SDS011;5961;42.640;23.380;2023-09-18T05:25:58;22.30;;;18.70;;
11807;SDS011;5961;42.640;23.380;2023-09-18T05:28:24;23.50;;;19.47;;
11807;SDS011;5961;42.640;23.380;2023-09-18T05:30:51;23.90;;;19.13;;
11807;SDS011;5961;42.640;23.380;2023-09-18T05:33:18;24.87;;;19.33;;
11807;SDS011;5961;42.640;23.380;2023-09-18T05:35:45;25.47;;;19.93;;
11807;SDS011;5961;42.640;23.380;2023-09-18T05:38:12;23.13;;;20.00;;
11807;SDS011;5961;42.640;23.380;2023-09-18T05:40:41;27.47;;;20.00;;
11807;SDS011;5961;42.640;23.380;2023-09-18T05:43:08;28.53;;;19.60;;
11807;SDS011;5961;42.640;23.380;2023-09-18T05:45:36;27.20;;;20.40;;
11807;SDS011;5961;42.640;23.380;2023-09-18T05:48:03;28.27;;;20.53;;
11807;SDS011;5961;42.640;23.380;2023-09-18T05:50:30;29.10;;;20.53;;
11807;SDS011;5961;42.640;23.380;2023-09-18T05:52:58;30.00;;;20.10;;
11807;SDS011;5961;42.640;23.380;2023-09-18T05:55:28;27.93;;;19.83;;
11807;SDS011;5961;42.640;23.380;2023-09-18T05:57:56;26.23;;;19.10;;
11807;SDS011;5961;42.640;23.380;2023-09-18T06:00:23;26.50;;;19.60;;
11807;SDS011;5961;42.640;23.380;2023-09-18T06:02:50;24.57;;;19.13;;
11807;SDS011;5961;42.640;23.380;2023-09-18T06:05:17;25.13;;;18.57;;
11807;SDS011;5961;42.640;23.380;2023-09-18T06:07:46;26.67;;;18.33;;
11807;SDS011;5961;42.640;23.380;2023-09-18T06:10:13;30.00;;;21.07;;
11807;SDS011;5961;42.640;23.380;2023-09-18T06:12:40;31.83;;;20.90;;
11807;SDS011;5961;42.640;23.380;2023-09-18T06:15:09;27.73;;;22.20;;
11807;SDS011;5961;42.640;23.380;2023-09-18T06:17:37;29.53;;;19.87;;
11807;SDS011;5961;42.640;23.380;2023-09-18T06:20:05;30.00;;;23.37;;
11807;SDS011;5961;42.640;23.380;2023-09-18T06:22:35;24.13;;;18.97;;
11807;SDS011;5961;42.640;23.380;2023-09-18T06:25:02;23.53;;;17.30;;
11807;SDS011;5961;42.640;23.380;2023-09-18T06:27:29;23.33;;;18.30;;
11807;SDS011;5961;42.640;23.380;2023-09-18T06:29:57;21.13;;;16.47;;
11807;SDS011;5961;42.640;23.380;2023-09-18T06:32:25;25.57;;;18.37;;
11807;SDS011;5961;42.640;23.380;2023-09-18T06:34:51;20.77;;;15.57;;
11807;SDS011;5961;42.640;23.380;2023-09-18T06:37:18;20.73;;;16.50;;
11807;SDS011;5961;42.640;23.380;2023-09-18T06:39:45;24.83;;;16.77;;
11807;SDS011;5961;42.640;23.380;2023-09-18T06:42:12;28.63;;;18.20;;
11807;SDS011;5961;42.640;23.380;2023-09-18T06:44:38;24.03;;;16.77;;
11807;SDS011;5961;42.640;23.380;2023-09-18T06:47:06;22.33;;;15.90;;
11807;SDS011;5961;42.640;23.380;2023-09-18T06:49:34;21.90;;;16.13;;
11807;SDS011;5961;42.640;23.380;2023-09-18T06:52:01;20.87;;;17.73;;
11807;SDS011;5961;42.640;23.380;2023-09-18T06:54:28;23.07;;;16.93;;
11807;SDS011;5961;42.640;23.380;2023-09-18T06:56:55;22.20;;;17.53;;
11807;SDS011;5961;42.640;23.380;2023-09-18T06:59:21;24.33;;;18.73;;
11807;SDS011;5961;42.640;23.380;2023-09-18T07:01:50;20.03;;;17.10;;
11807;SDS011;5961;42.640;23.380;2023-09-18T07:04:17;26.33;;;18.50;;
11807;SDS011;5961;42.640;23.380;2023-09-18T07:06:45;22.10;;;17.73;;
11807;SDS011;5961;42.640;23.380;2023-09-18T07:09:12;24.63;;;18.43;;
11807;SDS011;5961;42.640;23.380;2023-09-18T07:11:39;23.57;;;18.17;;
11807;SDS011;5961;42.640;23.380;2023-09-18T07:14:05;23.73;;;17.37;;
11807;SDS011;5961;42.640;23.380;2023-09-18T07:16:33;22.20;;;17.10;;
11807;SDS011;5961;42.640;23.380;2023-09-18T07:19:00;20.53;;;17.77;;
11807;SDS011;5961;42.640;23.380;2023-09-18T07:21:29;21.90;;;17.27;;
11807;SDS011;5961;42.640;23.380;2023-09-18T07:23:57;20.07;;;16.53;;
11807;SDS011;5961;42.640;23.380;2023-09-18T07:26:24;17.87;;;15.97;;
11807;SDS011;5961;42.640;23.380;2023-09-18T07:28:51;20.03;;;17.17;;
11807;SDS011;5961;42.640;23.380;2023-09-18T07:31:17;18.73;;;16.73;;
11807;SDS011;5961;42.640;23.380;2023-09-18T07:33:44;19.53;;;16.87;;
11807;SDS011;5961;42.640;23.380;2023-09-18T07:36:11;19.63;;;16.83;;
11807;SDS011;5961;42.640;23.380;2023-09-18T07:38:40;25.20;;;17.10;;
11807;SDS011;5961;42.640;23.380;2023-09-18T07:41:09;22.60;;;17.27;;
11807;SDS011;5961;42.640;23.380;2023-09-18T07:43:36;24.07;;;17.57;;
11807;SDS011;5961;42.640;23.380;2023-09-18T07:46:04;23.43;;;16.60;;
11807;SDS011;5961;42.640;23.380;2023-09-18T07:48:30;25.03;;;17.27;;
11807;SDS011;5961;42.640;23.380;2023-09-18T07:50:57;22.73;;;17.57;;
11807;SDS011;5961;42.640;23.380;2023-09-18T07:53:24;20.03;;;17.23;;
11807;SDS011;5961;42.640;23.380;2023-09-18T07:55:55;21.67;;;16.97;;
11807;SDS011;5961;42.640;23.380;2023-09-18T07:58:25;19.83;;;17.03;;
11807;SDS011;5961;42.640;23.380;2023-09-18T08:00:52;22.80;;;17.40;;
11807;SDS011;5961;42.640;23.380;2023-09-18T08:03:19;19.70;;;15.87;;
11807;SDS011;5961;42.640;23.380;2023-09-18T08:05:49;22.37;;;17.20;;
11807;SDS011;5961;42.640;23.380;2023-09-18T08:08:17;19.97;;;16.30;;
11807;SDS011;5961;42.640;23.380;2023-09-18T08:10:45;17.97;;;15.23;;
11807;SDS011;5961;42.640;23.380;2023-09-18T08:13:12;19.70;;;15.80;;
11807;SDS011;5961;42.640;23.380;2023-09-18T08:15:40;18.57;;;15.90;;
11807;SDS011;5961;42.640;23.380;2023-09-18T08:18:06;20.40;;;15.53;;
11807;SDS011;5961;42.640;23.380;2023-09-18T08:20:33;19.90;;;15.50;;
11807;SDS011;5961;42.640;23.380;2023-09-18T08:23:00;21.70;;;16.80;;
11807;SDS011;5961;42.640;23.380;2023-09-18T08:25:30;19.80;;;16.10;;
11807;SDS011;5961;42.640;23.380;2023-09-18T08:27:57;19.87;;;15.23;;
11807;SDS011;5961;42.640;23.380;2023-09-18T08:30:23;18.53;;;15.47;;
11807;SDS011;5961;42.640;23.380;2023-09-18T08:32:52;17.33;;;15.40;;
11807;SDS011;5961;42.640;23.380;2023-09-18T08:35:18;18.10;;;14.80;;
11807;SDS011;5961;42.640;23.380;2023-09-18T08:37:45;20.83;;;17.60;;
11807;SDS011;5961;42.640;23.380;2023-09-18T08:40:12;18.63;;;16.63;;
11807;SDS011;5961;42.640;23.380;2023-09-18T08:42:41;21.00;;;18.03;;
11807;SDS011;5961;42.640;23.380;2023-09-18T08:45:12;19.77;;;16.90;;
11807;SDS011;5961;42.640;23.380;2023-09-18T08:47:45;16.10;;;13.27;;
11807;SDS011;5961;42.640;23.380;2023-09-18T08:50:14;19.37;;;14.80;;
11807;SDS011;5961;42.640;23.380;2023-09-18T08:52:41;18.38;;;15.85;;
11807;SDS011;5961;42.640;23.380;2023-09-18T08:55:09;20.17;;;15.00;;
11807;SDS011;5961;42.640;23.380;2023-09-18T08:57:38;25.17;;;16.50;;
11807;SDS011;5961;42.640;23.380;2023-09-18T09:00:08;18.35;;;14.75;;
11807;SDS011;5961;42.640;23.380;2023-09-18T09:02:37;16.10;;;12.88;;
11807;SDS011;5961;42.640;23.380;2023-09-18T09:05:04;21.00;;;13.68;;
11807;SDS011;5961;42.640;23.380;2023-09-18T09:07:33;16.60;;;12.55;;
11807;SDS011;5961;42.640;23.380;2023-09-18T09:09:59;14.88;;;12.30;;
11807;SDS011;5961;42.640;23.380;2023-09-18T09:15:15;17.25;;;12.05;;
11807;SDS011;5961;42.640;23.380;2023-09-18T09:17:43;14.93;;;13.05;;
11807;SDS011;5961;42.640;23.380;2023-09-18T09:20:11;15.88;;;12.60;;
11807;SDS011;5961;42.640;23.380;2023-09-18T09:22:40;14.65;;;11.60;;
11807;SDS011;5961;42.640;23.380;2023-09-18T09:25:21;13.80;;;11.23;;
11807;SDS011;5961;42.640;23.380;2023-09-18T09:27:49;16.40;;;13.00;;
11807;SDS011;5961;42.640;23.380;2023-09-18T09:30:18;15.13;;;12.80;;
11807;SDS011;5961;42.640;23.380;2023-09-18T09:32:47;14.48;;;11.88;;
11807;SDS011;5961;42.640;23.380;2023-09-18T09:35:19;17.02;;;12.77;;
11807;SDS011;5961;42.640;23.380;2023-09-18T09:37:48;18.42;;;13.70;;
11807;SDS011;5961;42.640;23.380;2023-09-18T09:40:16;18.75;;;15.15;;
11807;SDS011;5961;42.640;23.380;2023-09-18T09:42:45;13.15;;;11.48;;
11807;SDS011;5961;42.640;23.380;2023-09-18T09:45:13;15.45;;;12.52;;
11807;SDS011;5961;42.640;23.380;2023-09-18T09:47:41;14.50;;;11.95;;
11807;SDS011;5961;42.640;23.380;2023-09-18T09:50:09;15.43;;;13.52;;
11807;SDS011;5961;42.640;23.380;2023-09-18T09:52:41;15.52;;;12.63;;
11807;SDS011;5961;42.640;23.380;2023-09-18T09:55:21;14.23;;;10.88;;
11807;SDS011;5961;42.640;23.380;2023-09-18T09:57:50;12.15;;;10.20;;
11807;SDS011;5961;42.640;23.380;2023-09-18T10:00:18;12.65;;;11.35;;
11807;SDS011;5961;42.640;23.380;2023-09-18T10:02:53;14.13;;;9.50;;
11807;SDS011;5961;42.640;23.380;2023-09-18T10:05:23;11.38;;;9.75;;
11807;SDS011;5961;42.640;23.380;2023-09-18T10:07:53;13.95;;;10.70;;
11807;SDS011;5961;42.640;23.380;2023-09-18T10:10:26;12.07;;;10.07;;
11807;SDS011;5961;42.640;23.380;2023-09-18T10:12:57;11.48;;;9.25;;
11807;SDS011;5961;42.640;23.380;2023-09-18T10:15:27;10.35;;;9.30;;
11807;SDS011;5961;42.640;23.380;2023-09-18T10:17:58;10.23;;;9.23;;
11807;SDS011;5961;42.640;23.380;2023-09-18T10:20:29;10.50;;;9.30;;
11807;SDS011;5961;42.640;23.380;2023-09-18T10:22:56;12.23;;;9.73;;
11807;SDS011;5961;42.640;23.380;2023-09-18T10:25:27;13.95;;;8.88;;
11807;SDS011;5961;42.640;23.380;2023-09-18T10:27:57;10.00;;;8.88;;
11807;SDS011;5961;42.640;23.380;2023-09-18T10:30:27;11.13;;;9.52;;
11807;SDS011;5961;42.640;23.380;2023-09-18T10:32:55;10.85;;;9.55;;
11807;SDS011;5961;42.640;23.380;2023-09-18T10:35:24;10.20;;;9.15;;
11807;SDS011;5961;42.640;23.380;2023-09-18T10:37:51;12.38;;;8.88;;
11807;SDS011;5961;42.640;23.380;2023-09-18T10:40:20;9.68;;;8.68;;
11807;SDS011;5961;42.640;23.380;2023-09-18T10:42:50;9.15;;;7.85;;
11807;SDS011;5961;42.640;23.380;2023-09-18T10:45:18;9.02;;;8.02;;
11807;SDS011;5961;42.640;23.380;2023-09-18T10:47:46;9.48;;;7.50;;
11807;SDS011;5961;42.640;23.380;2023-09-18T10:50:22;9.45;;;7.32;;
11807;SDS011;5961;42.640;23.380;2023-09-18T10:52:49;8.07;;;7.22;;
11807;SDS011;5961;42.640;23.380;2023-09-18T10:55:16;10.43;;;7.10;;
11807;SDS011;5961;42.640;23.380;2023-09-18T10:57:50;7.93;;;6.50;;
11807;SDS011;5961;42.640;23.380;2023-09-18T11:00:18;9.05;;;7.10;;
11807;SDS011;5961;42.640;23.380;2023-09-18T11:02:48;10.25;;;6.82;;
11807;SDS011;5961;42.640;23.380;2023-09-18T11:05:26;10.40;;;7.07;;
11807;SDS011;5961;42.640;23.380;2023-09-18T11:10:54;7.63;;;6.18;;
11807;SDS011;5961;42.640;23.380;2023-09-18T11:13:29;10.05;;;6.28;;
11807;SDS011;5961;42.640;23.380;2023-09-18T11:16:02;8.02;;;6.47;;
11807;SDS011;5961;42.640;23.380;2023-09-18T11:18:39;7.82;;;6.00;;
11807;SDS011;5961;42.640;23.380;2023-09-18T11:21:09;7.43;;;6.47;;
11807;SDS011;5961;42.640;23.380;2023-09-18T11:23:37;7.72;;;6.50;;
11807;SDS011;5961;42.640;23.380;2023-09-18T11:26:08;10.10;;;6.10;;
11807;SDS011;5961;42.640;23.380;2023-09-18T11:28:37;11.43;;;6.45;;
11807;SDS011;5961;42.640;23.380;2023-09-18T11:31:04;7.93;;;7.07;;
11807;SDS011;5961;42.640;23.380;2023-09-18T11:33:33;6.90;;;5.70;;
11807;SDS011;5961;42.640;23.380;2023-09-18T11:36:04;10.95;;;7.35;;
11807;SDS011;5961;42.640;23.380;2023-09-18T11:38:33;10.85;;;7.85;;
11807;SDS011;5961;42.640;23.380;2023-09-18T11:41:01;7.05;;;6.35;;
11807;SDS011;5961;42.640;23.380;2023-09-18T11:43:48;7.15;;;5.80;;
11807;SDS011;5961;42.640;23.380;2023-09-18T11:46:17;6.10;;;5.57;;
11807;SDS011;5961;42.640;23.380;2023-09-18T11:48:47;7.32;;;6.60;;
11807;SDS011;5961;42.640;23.380;2023-09-18T11:51:20;7.68;;;6.60;;
11807;SDS011;5961;42.640;23.380;2023-09-18T11:53:49;10.23;;;8.02;;
11807;SDS011;5961;42.640;23.380;2023-09-18T11:56:19;18.42;;;14.50;;
11807;SDS011;5961;42.640;23.380;2023-09-18T11:58:48;8.65;;;7.78;;
11807;SDS011;5961;42.640;23.380;2023-09-18T12:01:16;7.97;;;5.88;;
11807;SDS011;5961;42.640;23.380;2023-09-18T12:03:43;7.20;;;5.25;;
11807;SDS011;5961;42.640;23.380;2023-09-18T12:06:12;6.15;;;5.55;;
11807;SDS011;5961;42.640;23.380;2023-09-18T12:08:39;6.57;;;5.97;;
11807;SDS011;5961;42.640;23.380;2023-09-18T12:11:07;10.68;;;7.38;;
11807;SDS011;5961;42.640;23.380;2023-09-18T12:13:34;8.32;;;6.28;;
11807;SDS011;5961;42.640;23.380;2023-09-18T12:16:02;6.82;;;6.03;;
11807;SDS011;5961;42.640;23.380;2023-09-18T12:18:31;6.90;;;5.88;;
11807;SDS011;5961;42.640;23.380;2023-09-18T12:21:00;6.90;;;6.20;;
11807;SDS011;5961;42.640;23.380;2023-09-18T12:23:36;7.97;;;5.60;;
11807;SDS011;5961;42.640;23.380;2023-09-18T12:26:03;8.48;;;6.15;;
11807;SDS011;5961;42.640;23.380;2023-09-18T12:28:32;6.28;;;5.57;;
11807;SDS011;5961;42.640;23.380;2023-09-18T12:30:59;7.38;;;5.88;;
11807;SDS011;5961;42.640;23.380;2023-09-18T12:33:33;9.85;;;6.85;;
11807;SDS011;5961;42.640;23.380;2023-09-18T12:36:01;7.90;;;6.05;;
11807;SDS011;5961;42.640;23.380;2023-09-18T12:38:30;6.13;;;5.53;;
11807;SDS011;5961;42.640;23.380;2023-09-18T12:40:57;9.18;;;6.75;;
11807;SDS011;5961;42.640;23.380;2023-09-18T12:43:31;8.27;;;6.40;;
11807;SDS011;5961;42.640;23.380;2023-09-18T12:46:00;7.38;;;6.63;;
11807;SDS011;5961;42.640;23.380;2023-09-18T12:48:28;8.32;;;6.40;;
11807;SDS011;5961;42.640;23.380;2023-09-18T12:50:56;10.13;;;6.25;;
11807;SDS011;5961;42.640;23.380;2023-09-18T12:53:29;6.95;;;5.60;;
11807;SDS011;5961;42.640;23.380;2023-09-18T12:56:03;8.25;;;6.30;;
11807;SDS011;5961;42.640;23.380;2023-09-18T12:58:31;7.25;;;5.93;;
11807;SDS011;5961;42.640;23.380;2023-09-18T13:00:58;10.13;;;6.38;;
11807;SDS011;5961;42.640;23.380;2023-09-18T13:03:33;7.13;;;6.00;;
11807;SDS011;5961;42.640;23.380;2023-09-18T13:06:08;11.25;;;6.20;;
11807;SDS011;5961;42.640;23.380;2023-09-18T13:08:36;6.55;;;5.88;;
11807;SDS011;5961;42.640;23.380;2023-09-18T13:11:03;7.07;;;5.88;;
11807;SDS011;5961;42.640;23.380;2023-09-18T13:13:31;7.70;;;6.15;;
11807;SDS011;5961;42.640;23.380;2023-09-18T13:15:58;7.20;;;6.18;;
11807;SDS011;5961;42.640;23.380;2023-09-18T13:18:25;7.60;;;5.60;;
11807;SDS011;5961;42.640;23.380;2023-09-18T13:20:53;7.05;;;5.38;;
11807;SDS011;5961;42.640;23.380;2023-09-18T13:23:22;6.32;;;5.40;;
11807;SDS011;5961;42.640;23.380;2023-09-18T13:25:58;6.90;;;5.55;;
11807;SDS011;5961;42.640;23.380;2023-09-18T13:28:25;7.15;;;4.95;;
11807;SDS011;5961;42.640;23.380;2023-09-18T13:30:52;5.90;;;5.40;;
11807;SDS011;5961;42.640;23.380;2023-09-18T13:33:19;7.05;;;5.47;;
11807;SDS011;5961;42.640;23.380;2023-09-18T13:35:47;7.78;;;5.60;;
11807;SDS011;5961;42.640;23.380;2023-09-18T13:38:14;5.90;;;5.30;;
11807;SDS011;5961;42.640;23.380;2023-09-18T13:40:42;9.75;;;5.50;;
11807;SDS011;5961;42.640;23.380;2023-09-18T13:43:11;6.30;;;4.90;;
11807;SDS011;5961;42.640;23.380;2023-09-18T13:45:40;9.35;;;5.38;;
11807;SDS011;5961;42.640;23.380;2023-09-18T13:48:07;6.07;;;5.43;;
11807;SDS011;5961;42.640;23.380;2023-09-18T13:50:35;6.65;;;5.97;;
11807;SDS011;5961;42.640;23.380;2023-09-18T13:53:03;7.05;;;6.35;;
11807;SDS011;5961;42.640;23.380;2023-09-18T13:55:30;8.63;;;5.95;;
11807;SDS011;5961;42.640;23.380;2023-09-18T13:57:59;7.50;;;6.60;;
11807;SDS011;5961;42.640;23.380;2023-09-18T14:00:28;6.25;;;5.45;;
11807;SDS011;5961;42.640;23.380;2023-09-18T14:02:55;7.53;;;5.20;;
11807;SDS011;5961;42.640;23.380;2023-09-18T14:05:21;7.75;;;5.80;;
11807;SDS011;5961;42.640;23.380;2023-09-18T14:07:49;7.80;;;5.93;;
11807;SDS011;5961;42.640;23.380;2023-09-18T14:10:15;7.43;;;6.18;;
11807;SDS011;5961;42.640;23.380;2023-09-18T14:12:43;9.85;;;8.10;;
11807;SDS011;5961;42.640;23.380;2023-09-18T14:15:11;9.88;;;8.88;;
11807;SDS011;5961;42.640;23.380;2023-09-18T14:17:39;10.05;;;9.07;;
11807;SDS011;5961;42.640;23.380;2023-09-18T14:20:06;9.80;;;8.85;;
11807;SDS011;5961;42.640;23.380;2023-09-18T14:22:34;12.95;;;8.48;;
11807;SDS011;5961;42.640;23.380;2023-09-18T14:25:01;9.48;;;7.70;;
11807;SDS011;5961;42.640;23.380;2023-09-18T14:27:30;7.53;;;6.53;;
11807;SDS011;5961;42.640;23.380;2023-09-18T14:29:57;8.95;;;7.00;;
11807;SDS011;5961;42.640;23.380;2023-09-18T14:32:25;7.38;;;5.88;;
11807;SDS011;5961;42.640;23.380;2023-09-18T14:34:51;8.43;;;6.07;;
11807;SDS011;5961;42.640;23.380;2023-09-18T14:37:19;6.68;;;5.97;;
11807;SDS011;5961;42.640;23.380;2023-09-18T14:39:45;6.32;;;5.65;;